sensor_id;sensor_type;location;lat;lon;timestamp;P1;durP1;ratioP1;P2;durP2;ratioP2
58615;SDS011;44385;51.992;4.206;2023-09-07T00:01:46;12.27;;;9.82;;
58615;SDS011;44385;51.992;4.206;2023-09-07T00:04:12;10.10;;;9.00;;
58615;SDS011;44385;51.992;4.206;2023-09-07T00:06:39;10.30;;;9.30;;
58615;SDS011;44385;51.992;4.206;2023-09-07T00:09:09;11.27;;;9.45;;
58615;SDS011;44385;51.992;4.206;2023-09-07T00:11:36;9.52;;;8.63;;
58615;SDS011;44385;51.992;4.206;2023-09-07T00:14:02;13.23;;;10.30;;
58615;SDS011;44385;51.992;4.206;2023-09-07T00:16:30;11.13;;;10.00;;
58615;SDS011;44385;51.992;4.206;2023-09-07T00:19:02;11.98;;;10.63;;
58615;SDS011;44385;51.992;4.206;2023-09-07T00:21:28;11.45;;;10.27;;
58615;SDS011;44385;51.992;4.206;2023-09-07T00:23:57;10.45;;;9.40;;
58615;SDS011;44385;51.992;4.206;2023-09-07T00:26:31;12.40;;;9.85;;
58615;SDS011;44385;51.992;4.206;2023-09-07T00:31:25;11.23;;;10.00;;
58615;SDS011;44385;51.992;4.206;2023-09-07T00:33:51;10.60;;;9.60;;
58615;SDS011;44385;51.992;4.206;2023-09-07T00:36:18;10.68;;;9.43;;
58615;SDS011;44385;51.992;4.206;2023-09-07T00:38:44;10.43;;;8.98;;
58615;SDS011;44385;51.992;4.206;2023-09-07T00:41:11;10.13;;;8.65;;
58615;SDS011;44385;51.992;4.206;2023-09-07T00:43:39;10.75;;;9.68;;
58615;SDS011;44385;51.992;4.206;2023-09-07T00:46:06;11.47;;;10.23;;
58615;SDS011;44385;51.992;4.206;2023-09-07T00:48:32;11.05;;;9.95;;
58615;SDS011;44385;51.992;4.206;2023-09-07T00:50:59;10.45;;;9.35;;
58615;SDS011;44385;51.992;4.206;2023-09-07T00:53:26;10.80;;;9.75;;
58615;SDS011;44385;51.992;4.206;2023-09-07T00:55:53;10.27;;;9.18;;
58615;SDS011;44385;51.992;4.206;2023-09-07T00:58:20;11.48;;;10.38;;
58615;SDS011;44385;51.992;4.206;2023-09-07T01:00:48;13.15;;;9.82;;
58615;SDS011;44385;51.992;4.206;2023-09-07T01:03:14;12.63;;;10.05;;
58615;SDS011;44385;51.992;4.206;2023-09-07T01:05:43;12.38;;;9.65;;
58615;SDS011;44385;51.992;4.206;2023-09-07T01:08:14;11.80;;;10.32;;
58615;SDS011;44385;51.992;4.206;2023-09-07T01:10:42;11.00;;;9.77;;
58615;SDS011;44385;51.992;4.206;2023-09-07T01:13:08;11.95;;;10.75;;
58615;SDS011;44385;51.992;4.206;2023-09-07T01:15:34;11.38;;;9.48;;
58615;SDS011;44385;51.992;4.206;2023-09-07T01:18:03;11.10;;;10.00;;
58615;SDS011;44385;51.992;4.206;2023-09-07T01:20:30;13.55;;;9.55;;
58615;SDS011;44385;51.992;4.206;2023-09-07T01:23:00;11.63;;;10.50;;
58615;SDS011;44385;51.992;4.206;2023-09-07T01:25:27;11.45;;;10.18;;
58615;SDS011;44385;51.992;4.206;2023-09-07T01:27:57;11.75;;;10.20;;
58615;SDS011;44385;51.992;4.206;2023-09-07T01:30:25;16.52;;;9.90;;
58615;SDS011;44385;51.992;4.206;2023-09-07T01:32:52;12.37;;;10.20;;
58615;SDS011;44385;51.992;4.206;2023-09-07T01:35:19;11.88;;;10.63;;
58615;SDS011;44385;51.992;4.206;2023-09-07T01:37:46;15.75;;;11.48;;
58615;SDS011;44385;51.992;4.206;2023-09-07T01:40:14;14.73;;;10.95;;
58615;SDS011;44385;51.992;4.206;2023-09-07T01:42:40;12.50;;;11.20;;
58615;SDS011;44385;51.992;4.206;2023-09-07T01:45:07;12.32;;;11.10;;
58615;SDS011;44385;51.992;4.206;2023-09-07T01:47:34;10.63;;;9.63;;
58615;SDS011;44385;51.992;4.206;2023-09-07T01:50:00;11.38;;;10.02;;
58615;SDS011;44385;51.992;4.206;2023-09-07T01:52:27;11.27;;;10.10;;
58615;SDS011;44385;51.992;4.206;2023-09-07T01:54:55;11.80;;;10.48;;
58615;SDS011;44385;51.992;4.206;2023-09-07T01:57:22;12.20;;;10.50;;
58615;SDS011;44385;51.992;4.206;2023-09-07T01:59:49;11.77;;;10.68;;
58615;SDS011;44385;51.992;4.206;2023-09-07T02:02:15;12.20;;;11.02;;
58615;SDS011;44385;51.992;4.206;2023-09-07T02:04:41;11.82;;;10.73;;
58615;SDS011;44385;51.992;4.206;2023-09-07T02:07:11;12.70;;;11.40;;
58615;SDS011;44385;51.992;4.206;2023-09-07T02:09:37;13.00;;;11.68;;
58615;SDS011;44385;51.992;4.206;2023-09-07T02:12:04;13.45;;;11.30;;
58615;SDS011;44385;51.992;4.206;2023-09-07T02:14:32;12.88;;;11.40;;
58615;SDS011;44385;51.992;4.206;2023-09-07T02:16:59;11.85;;;10.68;;
58615;SDS011;44385;51.992;4.206;2023-09-07T02:19:26;12.93;;;11.63;;
58615;SDS011;44385;51.992;4.206;2023-09-07T02:21:52;12.82;;;11.52;;
58615;SDS011;44385;51.992;4.206;2023-09-07T02:24:19;13.82;;;12.50;;
58615;SDS011;44385;51.992;4.206;2023-09-07T02:26:45;14.07;;;12.25;;
58615;SDS011;44385;51.992;4.206;2023-09-07T02:29:11;13.13;;;11.90;;
58615;SDS011;44385;51.992;4.206;2023-09-07T02:31:39;13.30;;;12.00;;
58615;SDS011;44385;51.992;4.206;2023-09-07T02:34:06;12.80;;;11.40;;
58615;SDS011;44385;51.992;4.206;2023-09-07T02:36:32;13.57;;;12.27;;
58615;SDS011;44385;51.992;4.206;2023-09-07T02:38:59;13.23;;;11.85;;
58615;SDS011;44385;51.992;4.206;2023-09-07T02:41:26;14.45;;;12.90;;
58615;SDS011;44385;51.992;4.206;2023-09-07T02:43:52;12.55;;;11.30;;
58615;SDS011;44385;51.992;4.206;2023-09-07T02:46:19;14.93;;;13.45;;
58615;SDS011;44385;51.992;4.206;2023-09-07T02:48:46;14.07;;;12.57;;
58615;SDS011;44385;51.992;4.206;2023-09-07T02:51:13;14.27;;;12.88;;
58615;SDS011;44385;51.992;4.206;2023-09-07T02:53:39;15.07;;;12.07;;
58615;SDS011;44385;51.992;4.206;2023-09-07T02:56:06;15.50;;;14.00;;
58615;SDS011;44385;51.992;4.206;2023-09-07T02:58:32;14.68;;;13.27;;
58615;SDS011;44385;51.992;4.206;2023-09-07T03:00:59;14.52;;;13.00;;
58615;SDS011;44385;51.992;4.206;2023-09-07T03:03:25;14.30;;;12.90;;
58615;SDS011;44385;51.992;4.206;2023-09-07T03:05:53;15.50;;;14.00;;
58615;SDS011;44385;51.992;4.206;2023-09-07T03:08:19;15.48;;;14.00;;
58615;SDS011;44385;51.992;4.206;2023-09-07T03:10:46;16.65;;;14.23;;
58615;SDS011;44385;51.992;4.206;2023-09-07T03:13:12;17.38;;;15.68;;
58615;SDS011;44385;51.992;4.206;2023-09-07T03:15:38;15.93;;;14.25;;
58615;SDS011;44385;51.992;4.206;2023-09-07T03:18:05;17.58;;;15.70;;
58615;SDS011;44385;51.992;4.206;2023-09-07T03:20:32;15.98;;;14.48;;
58615;SDS011;44385;51.992;4.206;2023-09-07T03:23:00;16.80;;;14.60;;
58615;SDS011;44385;51.992;4.206;2023-09-07T03:25:27;17.00;;;15.23;;
58615;SDS011;44385;51.992;4.206;2023-09-07T03:27:53;15.73;;;14.07;;
58615;SDS011;44385;51.992;4.206;2023-09-07T03:30:20;18.20;;;16.30;;
58615;SDS011;44385;51.992;4.206;2023-09-07T03:32:46;17.38;;;15.70;;
58615;SDS011;44385;51.992;4.206;2023-09-07T03:35:12;17.20;;;15.55;;
58615;SDS011;44385;51.992;4.206;2023-09-07T03:37:38;18.92;;;16.38;;
58615;SDS011;44385;51.992;4.206;2023-09-07T03:40:08;17.63;;;15.80;;
58615;SDS011;44385;51.992;4.206;2023-09-07T03:42:35;17.90;;;16.08;;
58615;SDS011;44385;51.992;4.206;2023-09-07T03:45:01;19.92;;;17.30;;
58615;SDS011;44385;51.992;4.206;2023-09-07T03:47:28;18.90;;;17.08;;
58615;SDS011;44385;51.992;4.206;2023-09-07T03:49:55;18.38;;;16.55;;
58615;SDS011;44385;51.992;4.206;2023-09-07T03:52:21;19.23;;;17.33;;
58615;SDS011;44385;51.992;4.206;2023-09-07T03:54:49;17.63;;;15.80;;
58615;SDS011;44385;51.992;4.206;2023-09-07T03:57:17;19.25;;;16.75;;
58615;SDS011;44385;51.992;4.206;2023-09-07T03:59:43;18.42;;;16.50;;
58615;SDS011;44385;51.992;4.206;2023-09-07T04:02:09;20.02;;;17.00;;
58615;SDS011;44385;51.992;4.206;2023-09-07T04:04:36;19.40;;;15.93;;
58615;SDS011;44385;51.992;4.206;2023-09-07T04:07:03;18.75;;;17.05;;
58615;SDS011;44385;51.992;4.206;2023-09-07T04:09:32;18.02;;;16.23;;
58615;SDS011;44385;51.992;4.206;2023-09-07T04:11:59;18.75;;;16.75;;
58615;SDS011;44385;51.992;4.206;2023-09-07T04:14:27;19.98;;;17.85;;
58615;SDS011;44385;51.992;4.206;2023-09-07T04:16:54;18.55;;;16.75;;
58615;SDS011;44385;51.992;4.206;2023-09-07T04:19:20;19.88;;;18.00;;
58615;SDS011;44385;51.992;4.206;2023-09-07T04:21:47;19.83;;;17.73;;
58615;SDS011;44385;51.992;4.206;2023-09-07T04:24:13;19.77;;;17.63;;
58615;SDS011;44385;51.992;4.206;2023-09-07T04:26:40;20.30;;;18.27;;
58615;SDS011;44385;51.992;4.206;2023-09-07T04:29:06;21.30;;;18.17;;
58615;SDS011;44385;51.992;4.206;2023-09-07T04:31:34;19.65;;;17.67;;
58615;SDS011;44385;51.992;4.206;2023-09-07T04:34:00;19.60;;;17.65;;
58615;SDS011;44385;51.992;4.206;2023-09-07T04:36:28;19.83;;;17.88;;
58615;SDS011;44385;51.992;4.206;2023-09-07T04:38:56;19.50;;;17.48;;
58615;SDS011;44385;51.992;4.206;2023-09-07T04:41:26;19.85;;;17.55;;
58615;SDS011;44385;51.992;4.206;2023-09-07T04:43:53;19.35;;;17.35;;
58615;SDS011;44385;51.992;4.206;2023-09-07T04:46:21;19.25;;;16.92;;
58615;SDS011;44385;51.992;4.206;2023-09-07T04:48:49;18.83;;;16.03;;
58615;SDS011;44385;51.992;4.206;2023-09-07T04:51:16;16.42;;;14.82;;
58615;SDS011;44385;51.992;4.206;2023-09-07T04:53:43;17.90;;;16.08;;
58615;SDS011;44385;51.992;4.206;2023-09-07T04:56:09;18.33;;;16.50;;
58615;SDS011;44385;51.992;4.206;2023-09-07T04:58:35;18.45;;;16.67;;
58615;SDS011;44385;51.992;4.206;2023-09-07T05:01:02;18.00;;;15.02;;
58615;SDS011;44385;51.992;4.206;2023-09-07T05:03:30;16.00;;;14.35;;
58615;SDS011;44385;51.992;4.206;2023-09-07T05:06:00;16.40;;;14.68;;
58615;SDS011;44385;51.992;4.206;2023-09-07T05:08:28;16.75;;;15.15;;
58615;SDS011;44385;51.992;4.206;2023-09-07T05:10:57;16.67;;;15.13;;
58615;SDS011;44385;51.992;4.206;2023-09-07T05:13:25;18.23;;;16.05;;
58615;SDS011;44385;51.992;4.206;2023-09-07T05:15:52;15.95;;;14.43;;
58615;SDS011;44385;51.992;4.206;2023-09-07T05:18:19;17.45;;;15.75;;
58615;SDS011;44385;51.992;4.206;2023-09-07T05:20:45;16.42;;;14.75;;
58615;SDS011;44385;51.992;4.206;2023-09-07T05:23:14;17.20;;;15.50;;
58615;SDS011;44385;51.992;4.206;2023-09-07T05:28:09;19.50;;;17.10;;
58615;SDS011;44385;51.992;4.206;2023-09-07T05:30:35;19.13;;;17.23;;
58615;SDS011;44385;51.992;4.206;2023-09-07T05:33:01;20.23;;;16.95;;
58615;SDS011;44385;51.992;4.206;2023-09-07T05:35:28;18.55;;;16.75;;
58615;SDS011;44385;51.992;4.206;2023-09-07T05:40:27;19.73;;;17.67;;
58615;SDS011;44385;51.992;4.206;2023-09-07T05:42:53;19.50;;;17.63;;
58615;SDS011;44385;51.992;4.206;2023-09-07T05:45:20;21.42;;;17.60;;
58615;SDS011;44385;51.992;4.206;2023-09-07T05:47:46;19.90;;;17.88;;
58615;SDS011;44385;51.992;4.206;2023-09-07T05:50:12;21.90;;;17.90;;
58615;SDS011;44385;51.992;4.206;2023-09-07T05:52:39;21.85;;;18.65;;
58615;SDS011;44385;51.992;4.206;2023-09-07T05:55:06;20.17;;;18.17;;
58615;SDS011;44385;51.992;4.206;2023-09-07T05:57:34;19.15;;;17.25;;
58615;SDS011;44385;51.992;4.206;2023-09-07T06:00:00;19.52;;;16.75;;
58615;SDS011;44385;51.992;4.206;2023-09-07T06:02:27;21.73;;;19.38;;
58615;SDS011;44385;51.992;4.206;2023-09-07T06:04:53;19.83;;;17.77;;
58615;SDS011;44385;51.992;4.206;2023-09-07T06:07:19;22.73;;;20.42;;
58615;SDS011;44385;51.992;4.206;2023-09-07T06:09:46;20.67;;;18.60;;
58615;SDS011;44385;51.992;4.206;2023-09-07T06:12:12;21.23;;;19.10;;
58615;SDS011;44385;51.992;4.206;2023-09-07T06:14:40;21.48;;;19.38;;
58615;SDS011;44385;51.992;4.206;2023-09-07T06:17:07;23.30;;;18.73;;
58615;SDS011;44385;51.992;4.206;2023-09-07T06:19:33;20.92;;;18.85;;
58615;SDS011;44385;51.992;4.206;2023-09-07T06:21:59;20.63;;;18.38;;
58615;SDS011;44385;51.992;4.206;2023-09-07T06:24:26;22.02;;;19.73;;
58615;SDS011;44385;51.992;4.206;2023-09-07T06:26:52;21.52;;;17.05;;
58615;SDS011;44385;51.992;4.206;2023-09-07T06:29:18;18.95;;;16.98;;
58615;SDS011;44385;51.992;4.206;2023-09-07T06:31:46;21.67;;;19.38;;
58615;SDS011;44385;51.992;4.206;2023-09-07T06:34:15;20.52;;;17.58;;
58615;SDS011;44385;51.992;4.206;2023-09-07T06:36:41;20.27;;;18.25;;
58615;SDS011;44385;51.992;4.206;2023-09-07T06:39:07;19.98;;;17.88;;
58615;SDS011;44385;51.992;4.206;2023-09-07T06:41:34;22.20;;;18.83;;
58615;SDS011;44385;51.992;4.206;2023-09-07T06:44:00;24.20;;;19.42;;
58615;SDS011;44385;51.992;4.206;2023-09-07T06:46:27;21.85;;;19.75;;
58615;SDS011;44385;51.992;4.206;2023-09-07T06:48:55;21.90;;;19.55;;
58615;SDS011;44385;51.992;4.206;2023-09-07T06:51:21;21.98;;;19.63;;
58615;SDS011;44385;51.992;4.206;2023-09-07T06:53:48;26.13;;;20.92;;
58615;SDS011;44385;51.992;4.206;2023-09-07T06:56:15;22.58;;;20.13;;
58615;SDS011;44385;51.992;4.206;2023-09-07T06:58:41;23.20;;;19.85;;
58615;SDS011;44385;51.992;4.206;2023-09-07T07:01:08;22.70;;;20.30;;
58615;SDS011;44385;51.992;4.206;2023-09-07T07:03:34;23.45;;;20.08;;
58615;SDS011;44385;51.992;4.206;2023-09-07T07:06:02;22.38;;;20.10;;
58615;SDS011;44385;51.992;4.206;2023-09-07T07:08:28;23.42;;;20.42;;
58615;SDS011;44385;51.992;4.206;2023-09-07T07:10:55;27.15;;;20.33;;
58615;SDS011;44385;51.992;4.206;2023-09-07T07:13:22;21.70;;;19.55;;
58615;SDS011;44385;51.992;4.206;2023-09-07T07:15:48;27.52;;;20.70;;
58615;SDS011;44385;51.992;4.206;2023-09-07T07:18:14;23.05;;;20.55;;
58615;SDS011;44385;51.992;4.206;2023-09-07T07:20:41;20.90;;;18.73;;
58615;SDS011;44385;51.992;4.206;2023-09-07T07:23:10;20.90;;;18.73;;
58615;SDS011;44385;51.992;4.206;2023-09-07T07:25:36;20.80;;;18.65;;
58615;SDS011;44385;51.992;4.206;2023-09-07T07:28:03;20.75;;;18.45;;
58615;SDS011;44385;51.992;4.206;2023-09-07T07:30:30;19.95;;;17.35;;
58615;SDS011;44385;51.992;4.206;2023-09-07T07:32:57;22.88;;;18.27;;
58615;SDS011;44385;51.992;4.206;2023-09-07T07:35:24;21.10;;;16.92;;
58615;SDS011;44385;51.992;4.206;2023-09-07T07:37:50;20.23;;;18.13;;
58615;SDS011;44385;51.992;4.206;2023-09-07T07:40:18;22.63;;;17.73;;
58615;SDS011;44385;51.992;4.206;2023-09-07T07:42:45;19.67;;;16.88;;
58615;SDS011;44385;51.992;4.206;2023-09-07T07:45:11;18.92;;;17.05;;
58615;SDS011;44385;51.992;4.206;2023-09-07T07:47:38;20.13;;;17.63;;
58615;SDS011;44385;51.992;4.206;2023-09-07T07:50:05;19.92;;;17.85;;
58615;SDS011;44385;51.992;4.206;2023-09-07T07:52:32;24.33;;;18.15;;
58615;SDS011;44385;51.992;4.206;2023-09-07T07:54:59;19.50;;;17.42;;
58615;SDS011;44385;51.992;4.206;2023-09-07T07:57:27;19.23;;;17.20;;
58615;SDS011;44385;51.992;4.206;2023-09-07T07:59:53;21.20;;;16.95;;
58615;SDS011;44385;51.992;4.206;2023-09-07T08:02:20;18.50;;;16.38;;
58615;SDS011;44385;51.992;4.206;2023-09-07T08:04:46;18.88;;;16.92;;
58615;SDS011;44385;51.992;4.206;2023-09-07T08:07:12;17.23;;;15.43;;
58615;SDS011;44385;51.992;4.206;2023-09-07T08:09:39;21.08;;;16.45;;
58615;SDS011;44385;51.992;4.206;2023-09-07T08:12:05;16.73;;;14.45;;
58615;SDS011;44385;51.992;4.206;2023-09-07T08:14:33;18.10;;;14.00;;
58615;SDS011;44385;51.992;4.206;2023-09-07T08:17:00;15.20;;;13.55;;
58615;SDS011;44385;51.992;4.206;2023-09-07T08:19:27;17.55;;;14.23;;
58615;SDS011;44385;51.992;4.206;2023-09-07T08:21:55;20.25;;;15.10;;
58615;SDS011;44385;51.992;4.206;2023-09-07T08:24:21;15.93;;;13.98;;
58615;SDS011;44385;51.992;4.206;2023-09-07T08:26:47;16.02;;;13.98;;
58615;SDS011;44385;51.992;4.206;2023-09-07T08:29:16;15.13;;;13.40;;
58615;SDS011;44385;51.992;4.206;2023-09-07T08:31:46;15.88;;;12.50;;
58615;SDS011;44385;51.992;4.206;2023-09-07T08:34:13;15.07;;;13.50;;
58615;SDS011;44385;51.992;4.206;2023-09-07T08:36:40;12.65;;;10.93;;
58615;SDS011;44385;51.992;4.206;2023-09-07T08:39:07;12.80;;;11.43;;
58615;SDS011;44385;51.992;4.206;2023-09-07T08:41:38;12.77;;;11.30;;
58615;SDS011;44385;51.992;4.206;2023-09-07T08:44:08;11.60;;;10.18;;
58615;SDS011;44385;51.992;4.206;2023-09-07T08:46:35;11.77;;;10.57;;
58615;SDS011;44385;51.992;4.206;2023-09-07T08:49:04;13.18;;;9.52;;
58615;SDS011;44385;51.992;4.206;2023-09-07T08:51:30;11.63;;;9.35;;
58615;SDS011;44385;51.992;4.206;2023-09-07T08:53:57;11.10;;;9.15;;
58615;SDS011;44385;51.992;4.206;2023-09-07T08:56:25;11.45;;;10.13;;
58615;SDS011;44385;51.992;4.206;2023-09-07T08:58:54;12.27;;;9.63;;
58615;SDS011;44385;51.992;4.206;2023-09-07T09:01:20;9.77;;;8.82;;
58615;SDS011;44385;51.992;4.206;2023-09-07T09:03:47;10.98;;;8.65;;
58615;SDS011;44385;51.992;4.206;2023-09-07T09:06:15;13.85;;;9.13;;
58615;SDS011;44385;51.992;4.206;2023-09-07T09:08:43;10.60;;;9.52;;
58615;SDS011;44385;51.992;4.206;2023-09-07T09:11:10;9.98;;;8.43;;
58615;SDS011;44385;51.992;4.206;2023-09-07T09:13:36;9.10;;;8.13;;
58615;SDS011;44385;51.992;4.206;2023-09-07T09:16:03;11.88;;;8.57;;
58615;SDS011;44385;51.992;4.206;2023-09-07T09:18:30;11.95;;;7.90;;
58615;SDS011;44385;51.992;4.206;2023-09-07T09:20:57;9.73;;;7.35;;
58615;SDS011;44385;51.992;4.206;2023-09-07T09:23:29;10.85;;;8.27;;
58615;SDS011;44385;51.992;4.206;2023-09-07T09:25:57;8.65;;;6.72;;
58615;SDS011;44385;51.992;4.206;2023-09-07T09:28:25;9.18;;;8.30;;
58615;SDS011;44385;51.992;4.206;2023-09-07T09:30:52;12.10;;;9.15;;
58615;SDS011;44385;51.992;4.206;2023-09-07T09:33:19;9.02;;;8.13;;
58615;SDS011;44385;51.992;4.206;2023-09-07T09:35:45;10.60;;;7.47;;
58615;SDS011;44385;51.992;4.206;2023-09-07T09:38:12;10.50;;;7.38;;
58615;SDS011;44385;51.992;4.206;2023-09-07T09:40:40;9.73;;;7.45;;
58615;SDS011;44385;51.992;4.206;2023-09-07T09:43:07;7.07;;;6.03;;
58615;SDS011;44385;51.992;4.206;2023-09-07T09:45:34;8.40;;;6.30;;
58615;SDS011;44385;51.992;4.206;2023-09-07T09:48:01;9.40;;;7.10;;
58615;SDS011;44385;51.992;4.206;2023-09-07T09:50:28;8.93;;;7.22;;
58615;SDS011;44385;51.992;4.206;2023-09-07T09:52:56;8.88;;;6.13;;
58615;SDS011;44385;51.992;4.206;2023-09-07T09:55:25;6.82;;;5.93;;
58615;SDS011;44385;51.992;4.206;2023-09-07T09:57:53;9.38;;;6.82;;
58615;SDS011;44385;51.992;4.206;2023-09-07T10:00:22;7.85;;;6.05;;
58615;SDS011;44385;51.992;4.206;2023-09-07T10:02:54;7.80;;;6.05;;
58615;SDS011;44385;51.992;4.206;2023-09-07T10:05:21;7.32;;;5.60;;
58615;SDS011;44385;51.992;4.206;2023-09-07T10:07:49;7.45;;;5.75;;
58615;SDS011;44385;51.992;4.206;2023-09-07T10:10:17;7.57;;;5.47;;
58615;SDS011;44385;51.992;4.206;2023-09-07T10:12:45;11.25;;;6.68;;
58615;SDS011;44385;51.992;4.206;2023-09-07T10:15:23;6.43;;;5.70;;
58615;SDS011;44385;51.992;4.206;2023-09-07T10:17:49;7.82;;;5.88;;
58615;SDS011;44385;51.992;4.206;2023-09-07T10:20:17;8.80;;;6.13;;
58615;SDS011;44385;51.992;4.206;2023-09-07T10:22:45;6.83;;;5.57;;
58615;SDS011;44385;51.992;4.206;2023-09-07T10:25:18;8.10;;;5.55;;
58615;SDS011;44385;51.992;4.206;2023-09-07T10:27:45;7.18;;;5.95;;
58615;SDS011;44385;51.992;4.206;2023-09-07T10:30:12;8.55;;;5.40;;
58615;SDS011;44385;51.992;4.206;2023-09-07T10:32:42;5.82;;;5.20;;
58615;SDS011;44385;51.992;4.206;2023-09-07T10:35:14;7.87;;;5.20;;
58615;SDS011;44385;51.992;4.206;2023-09-07T10:37:43;7.80;;;5.55;;
58615;SDS011;44385;51.992;4.206;2023-09-07T10:40:10;8.85;;;5.72;;
58615;SDS011;44385;51.992;4.206;2023-09-07T10:42:37;10.50;;;5.50;;
58615;SDS011;44385;51.992;4.206;2023-09-07T10:45:08;6.68;;;5.90;;
58615;SDS011;44385;51.992;4.206;2023-09-07T10:47:35;6.43;;;4.88;;
58615;SDS011;44385;51.992;4.206;2023-09-07T10:50:03;7.55;;;5.72;;
58615;SDS011;44385;51.992;4.206;2023-09-07T10:52:30;7.03;;;5.88;;
58615;SDS011;44385;51.992;4.206;2023-09-07T10:54:57;5.68;;;5.07;;
58615;SDS011;44385;51.992;4.206;2023-09-07T10:57:24;9.60;;;4.82;;
58615;SDS011;44385;51.992;4.206;2023-09-07T10:59:51;8.07;;;4.88;;
58615;SDS011;44385;51.992;4.206;2023-09-07T11:02:20;8.48;;;4.75;;
58615;SDS011;44385;51.992;4.206;2023-09-07T11:04:46;5.25;;;4.75;;
58615;SDS011;44385;51.992;4.206;2023-09-07T11:07:14;8.80;;;5.57;;
58615;SDS011;44385;51.992;4.206;2023-09-07T11:09:41;5.85;;;5.32;;
58615;SDS011;44385;51.992;4.206;2023-09-07T11:12:07;5.78;;;4.50;;
58615;SDS011;44385;51.992;4.206;2023-09-07T11:14:34;6.35;;;4.68;;
58615;SDS011;44385;51.992;4.206;2023-09-07T11:17:00;7.05;;;5.00;;
58615;SDS011;44385;51.992;4.206;2023-09-07T11:19:31;5.28;;;4.80;;
58615;SDS011;44385;51.992;4.206;2023-09-07T11:21:57;5.28;;;4.70;;
58615;SDS011;44385;51.992;4.206;2023-09-07T11:24:26;7.63;;;4.60;;
58615;SDS011;44385;51.992;4.206;2023-09-07T11:26:52;4.72;;;4.25;;
58615;SDS011;44385;51.992;4.206;2023-09-07T11:29:18;4.57;;;4.18;;
58615;SDS011;44385;51.992;4.206;2023-09-07T11:31:45;6.63;;;4.75;;
58615;SDS011;44385;51.992;4.206;2023-09-07T11:34:12;5.55;;;4.43;;
58615;SDS011;44385;51.992;4.206;2023-09-07T11:36:39;4.53;;;4.13;;
58615;SDS011;44385;51.992;4.206;2023-09-07T11:39:05;5.55;;;4.68;;
58615;SDS011;44385;51.992;4.206;2023-09-07T11:41:38;4.78;;;4.13;;
58615;SDS011;44385;51.992;4.206;2023-09-07T11:44:06;5.68;;;4.30;;
58615;SDS011;44385;51.992;4.206;2023-09-07T11:46:32;4.47;;;3.92;;
58615;SDS011;44385;51.992;4.206;2023-09-07T11:48:59;5.28;;;4.65;;
58615;SDS011;44385;51.992;4.206;2023-09-07T11:51:26;5.97;;;4.38;;
58615;SDS011;44385;51.992;4.206;2023-09-07T11:53:52;8.02;;;4.63;;
58615;SDS011;44385;51.992;4.206;2023-09-07T11:56:18;5.95;;;4.35;;
58615;SDS011;44385;51.992;4.206;2023-09-07T11:58:46;9.07;;;4.75;;
58615;SDS011;44385;51.992;4.206;2023-09-07T12:01:13;5.47;;;4.30;;
58615;SDS011;44385;51.992;4.206;2023-09-07T12:03:41;9.13;;;4.93;;
58615;SDS011;44385;51.992;4.206;2023-09-07T12:06:07;5.10;;;4.60;;
58615;SDS011;44385;51.992;4.206;2023-09-07T12:08:34;6.25;;;4.25;;
58615;SDS011;44385;51.992;4.206;2023-09-07T12:11:00;4.78;;;3.97;;
58615;SDS011;44385;51.992;4.206;2023-09-07T12:13:27;8.27;;;4.30;;
58615;SDS011;44385;51.992;4.206;2023-09-07T12:15:54;5.30;;;4.45;;
58615;SDS011;44385;51.992;4.206;2023-09-07T12:18:21;6.18;;;4.68;;
58615;SDS011;44385;51.992;4.206;2023-09-07T12:20:48;4.45;;;4.05;;
58615;SDS011;44385;51.992;4.206;2023-09-07T12:23:15;4.88;;;4.18;;
58615;SDS011;44385;51.992;4.206;2023-09-07T12:25:41;5.90;;;3.97;;
58615;SDS011;44385;51.992;4.206;2023-09-07T12:28:08;5.55;;;4.35;;
58615;SDS011;44385;51.992;4.206;2023-09-07T12:30:35;5.07;;;4.40;;
58615;SDS011;44385;51.992;4.206;2023-09-07T12:33:02;5.63;;;3.95;;
58615;SDS011;44385;51.992;4.206;2023-09-07T12:35:30;7.07;;;4.20;;
58615;SDS011;44385;51.992;4.206;2023-09-07T12:37:57;6.13;;;4.30;;
58615;SDS011;44385;51.992;4.206;2023-09-07T12:40:25;5.72;;;4.57;;
58615;SDS011;44385;51.992;4.206;2023-09-07T12:42:51;6.10;;;3.83;;
58615;SDS011;44385;51.992;4.206;2023-09-07T12:45:17;4.68;;;3.90;;
58615;SDS011;44385;51.992;4.206;2023-09-07T12:47:44;5.35;;;4.05;;
58615;SDS011;44385;51.992;4.206;2023-09-07T12:50:11;4.72;;;3.90;;
58615;SDS011;44385;51.992;4.206;2023-09-07T12:52:38;5.97;;;4.32;;
58615;SDS011;44385;51.992;4.206;2023-09-07T12:55:05;5.10;;;4.15;;
58615;SDS011;44385;51.992;4.206;2023-09-07T12:57:31;5.90;;;3.97;;
58615;SDS011;44385;51.992;4.206;2023-09-07T12:59:57;4.00;;;3.70;;
58615;SDS011;44385;51.992;4.206;2023-09-07T13:02:25;8.45;;;4.45;;
58615;SDS011;44385;51.992;4.206;2023-09-07T13:04:53;6.88;;;4.80;;
58615;SDS011;44385;51.992;4.206;2023-09-07T13:07:21;5.47;;;4.65;;
58615;SDS011;44385;51.992;4.206;2023-09-07T13:09:47;4.88;;;4.35;;
58615;SDS011;44385;51.992;4.206;2023-09-07T13:12:14;7.63;;;4.23;;
58615;SDS011;44385;51.992;4.206;2023-09-07T13:14:41;5.43;;;4.10;;
58615;SDS011;44385;51.992;4.206;2023-09-07T13:17:11;4.30;;;4.00;;
58615;SDS011;44385;51.992;4.206;2023-09-07T13:19:38;5.68;;;4.22;;
58615;SDS011;44385;51.992;4.206;2023-09-07T13:22:04;5.35;;;3.75;;
58615;SDS011;44385;51.992;4.206;2023-09-07T13:24:32;9.60;;;4.18;;
58615;SDS011;44385;51.992;4.206;2023-09-07T13:27:02;6.28;;;4.45;;
58615;SDS011;44385;51.992;4.206;2023-09-07T13:29:28;4.82;;;4.32;;
58615;SDS011;44385;51.992;4.206;2023-09-07T13:31:56;6.97;;;4.18;;
58615;SDS011;44385;51.992;4.206;2023-09-07T13:34:24;4.60;;;4.25;;
58615;SDS011;44385;51.992;4.206;2023-09-07T13:36:50;6.50;;;4.75;;
58615;SDS011;44385;51.992;4.206;2023-09-07T13:39:17;6.88;;;4.40;;
58615;SDS011;44385;51.992;4.206;2023-09-07T13:41:45;4.57;;;4.18;;
58615;SDS011;44385;51.992;4.206;2023-09-07T13:44:11;8.02;;;4.82;;
58615;SDS011;44385;51.992;4.206;2023-09-07T13:46:37;5.95;;;4.30;;
58615;SDS011;44385;51.992;4.206;2023-09-07T13:49:04;5.05;;;4.55;;
58615;SDS011;44385;51.992;4.206;2023-09-07T13:51:31;5.35;;;4.03;;
58615;SDS011;44385;51.992;4.206;2023-09-07T13:54:02;5.00;;;3.70;;
58615;SDS011;44385;51.992;4.206;2023-09-07T13:56:28;4.30;;;3.90;;
58615;SDS011;44385;51.992;4.206;2023-09-07T13:59:00;7.07;;;4.00;;
58615;SDS011;44385;51.992;4.206;2023-09-07T14:01:27;5.03;;;4.00;;
58615;SDS011;44385;51.992;4.206;2023-09-07T14:03:53;4.75;;;3.63;;
58615;SDS011;44385;51.992;4.206;2023-09-07T14:06:19;7.00;;;4.15;;
58615;SDS011;44385;51.992;4.206;2023-09-07T14:08:48;6.00;;;3.47;;
58615;SDS011;44385;51.992;4.206;2023-09-07T14:11:16;4.78;;;4.38;;
58615;SDS011;44385;51.992;4.206;2023-09-07T14:13:42;5.88;;;4.32;;
58615;SDS011;44385;51.992;4.206;2023-09-07T14:16:10;4.30;;;3.72;;
58615;SDS011;44385;51.992;4.206;2023-09-07T14:18:36;4.50;;;3.60;;
58615;SDS011;44385;51.992;4.206;2023-09-07T14:21:03;4.25;;;3.83;;
58615;SDS011;44385;51.992;4.206;2023-09-07T14:23:30;4.53;;;3.95;;
58615;SDS011;44385;51.992;4.206;2023-09-07T14:25:57;7.40;;;4.28;;
58615;SDS011;44385;51.992;4.206;2023-09-07T14:28:24;4.10;;;3.70;;
58615;SDS011;44385;51.992;4.206;2023-09-07T14:30:51;4.47;;;4.03;;
58615;SDS011;44385;51.992;4.206;2023-09-07T14:33:20;8.30;;;4.32;;
58615;SDS011;44385;51.992;4.206;2023-09-07T14:35:47;6.55;;;4.10;;
58615;SDS011;44385;51.992;4.206;2023-09-07T14:38:16;5.22;;;4.50;;
58615;SDS011;44385;51.992;4.206;2023-09-07T14:40:43;6.10;;;4.47;;